createdAt,value
2018-07-14T00:00:12.042Z,991.80
2018-07-14T00:01:12.543Z,991.80
2018-07-14T00:02:13.509Z,991.79
2018-07-14T00:03:12.541Z,991.80
2018-07-14T00:04:12.548Z,991.81
2018-07-14T00:05:15.075Z,991.79
2018-07-14T00:07:44.455Z,991.80
2018-07-14T00:08:44.462Z,991.79
2018-07-14T00:09:44.462Z,991.80
2018-07-14T00:12:16.244Z,991.78
2018-07-14T00:13:16.247Z,991.75
2018-07-14T00:14:16.247Z,991.80
2018-07-14T00:15:16.750Z,991.79
2018-07-14T00:17:48.138Z,991.76
2018-07-14T00:18:48.151Z,991.71
2018-07-14T00:19:48.152Z,991.72
2018-07-14T00:20:48.646Z,991.69
2018-07-14T00:21:48.647Z,991.66
2018-07-14T00:22:48.645Z,991.64
2018-07-14T00:23:48.645Z,991.65
2018-07-14T00:26:20.401Z,991.63
2018-07-14T00:27:20.406Z,991.62
2018-07-14T00:28:20.413Z,991.61
2018-07-14T00:29:22.838Z,991.61
2018-07-14T00:31:52.769Z,991.60
2018-07-14T00:32:52.774Z,991.56
2018-07-14T00:33:52.773Z,991.61
2018-07-14T00:34:52.774Z,991.56
2018-07-14T00:35:53.281Z,991.57
2018-07-14T00:36:53.273Z,991.56
2018-07-14T00:37:53.274Z,991.54
2018-07-14T00:38:52.771Z,991.54
2018-07-14T00:39:55.205Z,991.57
2018-07-14T00:40:53.779Z,991.56
2018-07-14T00:41:53.775Z,991.57
2018-07-14T00:42:53.778Z,991.58
2018-07-14T00:43:54.277Z,991.59
2018-07-14T00:44:54.274Z,991.56
2018-07-14T00:45:54.275Z,991.54
2018-07-14T00:46:54.281Z,991.59
2018-07-14T00:48:21.773Z,991.57
2018-07-14T00:48:56.232Z,991.54
2018-07-14T00:49:54.777Z,991.60
2018-07-14T00:50:54.773Z,991.60
2018-07-14T00:53:26.515Z,991.59
2018-07-14T00:54:47.522Z,991.60
2018-07-14T00:55:26.531Z,991.59
2018-07-14T00:56:41.025Z,991.58
2018-07-14T00:57:48.026Z,991.61
2018-07-14T00:58:27.033Z,991.60
2018-07-14T00:59:27.036Z,991.63
2018-07-14T01:00:26.651Z,991.63
2018-07-14T01:01:27.525Z,991.62
2018-07-14T01:02:27.525Z,991.65
2018-07-14T01:03:26.998Z,991.62
2018-07-14T01:05:59.240Z,991.62
2018-07-14T01:07:20.248Z,991.66
2018-07-14T01:07:59.249Z,991.62
2018-07-14T01:10:31.007Z,991.67
2018-07-14T01:11:31.011Z,991.67
2018-07-14T01:12:52.010Z,991.66
2018-07-14T01:13:33.501Z,991.69
2018-07-14T01:14:31.501Z,991.68
2018-07-14T01:15:52.501Z,991.71
2018-07-14T01:16:31.503Z,991.72
2018-07-14T01:17:53.094Z,991.77
2018-07-14T01:18:33.999Z,991.73
2018-07-14T01:19:34.933Z,991.74
2018-07-14T01:20:32.001Z,991.76
2018-07-14T01:21:32.501Z,991.76
2018-07-14T01:22:32.501Z,991.80
2018-07-14T01:23:32.501Z,991.78
2018-07-14T01:24:32.503Z,991.77
2018-07-14T01:25:34.462Z,991.83
2018-07-14T01:26:33.000Z,991.82
2018-07-14T01:27:33.942Z,991.84
2018-07-14T01:28:32.448Z,991.85
2018-07-14T01:29:53.523Z,991.82
2018-07-14T01:30:54.508Z,991.78
2018-07-14T01:31:33.506Z,991.82
2018-07-14T01:32:34.499Z,991.77
2018-07-14T01:33:33.501Z,991.77
2018-07-14T01:34:55.001Z,991.77
2018-07-14T01:35:34.004Z,991.77
2018-07-14T01:36:34.001Z,991.76
2018-07-14T01:37:34.000Z,991.75
2018-07-14T01:38:33.602Z,991.74
2018-07-14T01:39:34.500Z,991.75
2018-07-14T01:40:55.501Z,991.70
2018-07-14T01:41:34.505Z,991.75
2018-07-14T01:42:57.440Z,991.75
2018-07-14T01:43:34.175Z,991.77
2018-07-14T01:44:35.433Z,991.73
2018-07-14T01:45:35.957Z,991.78
2018-07-14T01:46:56.001Z,991.72
2018-07-14T01:47:55.458Z,991.76
2018-07-14T01:48:35.501Z,991.73
2018-07-14T01:51:12.866Z,991.71
2018-07-14T01:53:59.361Z,991.68
2018-07-14T01:54:40.320Z,991.68
2018-07-14T01:55:59.407Z,991.66
2018-07-14T01:56:38.368Z,991.64
2018-07-14T01:57:59.868Z,991.64
2018-07-14T01:58:38.863Z,991.65
2018-07-14T01:59:38.868Z,991.70
2018-07-14T02:00:38.872Z,991.63
2018-07-14T02:01:54.368Z,991.70
2018-07-14T02:04:16.201Z,991.69
2018-07-14T02:05:10.759Z,991.71
2018-07-14T02:06:10.768Z,991.67
2018-07-14T02:08:44.506Z,991.67
2018-07-14T02:09:42.513Z,991.69
2018-07-14T02:11:03.523Z,991.71
2018-07-14T02:12:04.068Z,991.66
2018-07-14T02:12:43.022Z,991.68
2018-07-14T02:13:45.445Z,991.68
2018-07-14T02:14:45.513Z,991.67
2018-07-14T02:15:42.612Z,991.68
2018-07-14T02:16:43.513Z,991.69
2018-07-14T02:17:43.514Z,991.68
2018-07-14T02:18:43.518Z,991.72
2018-07-14T02:19:44.013Z,991.67
2018-07-14T02:20:44.013Z,991.69
2018-07-14T02:21:44.013Z,991.70
2018-07-14T02:22:43.485Z,991.72
2018-07-14T02:24:05.512Z,991.71
2018-07-14T02:24:44.513Z,991.72
2018-07-14T02:25:44.513Z,991.72
2018-07-14T02:26:44.513Z,991.73
2018-07-14T02:28:06.013Z,991.73
2018-07-14T02:28:45.075Z,991.73
2018-07-14T02:29:45.020Z,991.72
2018-07-14T02:30:45.014Z,991.73
2018-07-14T02:31:45.515Z,991.74
2018-07-14T02:33:06.945Z,991.71
2018-07-14T02:33:45.513Z,991.71
2018-07-14T02:34:46.968Z,991.67
2018-07-14T02:35:45.517Z,991.70
2018-07-14T02:36:45.513Z,991.73
2018-07-14T02:37:45.513Z,991.70
2018-07-14T02:43:20.106Z,991.72
2018-07-14T02:44:34.113Z,991.73
2018-07-14T02:45:20.117Z,991.73
2018-07-14T02:46:20.615Z,991.72
2018-07-14T02:47:20.615Z,991.70
2018-07-14T02:48:20.613Z,991.75
2018-07-14T02:49:20.619Z,991.76
2018-07-14T02:52:13.378Z,991.76
2018-07-14T02:52:53.377Z,991.78
2018-07-14T02:53:52.373Z,991.75
2018-07-14T02:56:45.139Z,991.81
2018-07-14T02:57:24.147Z,991.80
2018-07-14T03:01:27.334Z,991.83
2018-07-14T03:02:27.345Z,991.82
2018-07-14T03:03:26.816Z,991.79
2018-07-14T03:05:59.078Z,991.84
2018-07-14T03:07:00.521Z,991.87
2018-07-14T03:07:59.078Z,991.87
2018-07-14T03:08:58.549Z,991.86
2018-07-14T03:09:59.565Z,991.90
2018-07-14T03:10:59.565Z,991.87
2018-07-14T03:11:59.565Z,991.87
2018-07-14T03:12:59.651Z,991.85
2018-07-14T03:14:00.066Z,991.86
2018-07-14T03:15:00.089Z,991.87
2018-07-14T03:16:02.063Z,991.83
2018-07-14T03:17:00.070Z,991.85
2018-07-14T03:18:21.067Z,991.77
2018-07-14T03:19:25.641Z,991.81
2018-07-14T03:21:33.396Z,991.82
2018-07-14T03:22:31.924Z,991.83
2018-07-14T03:23:32.429Z,991.82
2018-07-14T03:24:54.359Z,991.85
2018-07-14T03:27:03.217Z,991.91
2018-07-14T03:28:03.970Z,991.88
2018-07-14T03:29:04.949Z,991.85
2018-07-14T03:30:04.460Z,991.82
2018-07-14T03:31:05.449Z,991.86
2018-07-14T03:32:04.451Z,991.88
2018-07-14T03:33:04.455Z,991.93
2018-07-14T03:34:25.951Z,991.88
2018-07-14T03:35:04.952Z,991.91
2018-07-14T03:36:06.383Z,991.91
2018-07-14T03:37:04.960Z,991.88
2018-07-14T03:39:37.231Z,991.89
2018-07-14T03:40:37.245Z,991.88
2018-07-14T03:41:38.229Z,991.88
2018-07-14T03:44:08.982Z,991.85
2018-07-14T03:45:08.988Z,991.87
2018-07-14T03:46:08.989Z,991.88
2018-07-14T03:47:09.495Z,991.83
2018-07-14T03:48:09.489Z,991.87
2018-07-14T03:49:09.492Z,991.85
2018-07-14T03:50:09.489Z,991.86
2018-07-14T03:51:09.988Z,991.84
2018-07-14T03:52:10.986Z,991.85
2018-07-14T03:53:30.988Z,991.81
2018-07-14T03:54:30.992Z,991.80
2018-07-14T03:55:31.488Z,991.82
2018-07-14T03:57:42.360Z,991.78
2018-07-14T03:58:42.368Z,991.85
2018-07-14T04:00:03.370Z,991.82
2018-07-14T04:00:42.366Z,991.75
2018-07-14T04:02:09.867Z,991.81
2018-07-14T04:04:14.306Z,991.80
2018-07-14T04:05:14.277Z,991.80
2018-07-14T04:09:19.297Z,991.75
2018-07-14T04:11:49.235Z,991.84
2018-07-14T04:12:49.243Z,991.75
2018-07-14T04:13:49.245Z,991.83
2018-07-14T04:14:51.180Z,991.85
2018-07-14T04:16:10.739Z,991.80
2018-07-14T04:16:49.746Z,991.84
2018-07-14T04:17:49.741Z,991.78
2018-07-14T04:18:50.240Z,991.84
2018-07-14T04:19:50.240Z,991.79
2018-07-14T04:20:50.240Z,991.81
2018-07-14T04:21:50.236Z,991.79
2018-07-14T04:23:11.748Z,991.79
2018-07-14T04:23:50.740Z,991.80
2018-07-14T04:24:52.196Z,991.80
2018-07-14T04:25:50.739Z,991.79
2018-07-14T04:28:22.490Z,991.79
2018-07-14T04:29:22.498Z,991.83
2018-07-14T04:30:22.512Z,991.86
2018-07-14T04:31:22.994Z,991.83
2018-07-14T04:32:22.997Z,991.84
2018-07-14T04:33:22.998Z,991.87
2018-07-14T04:34:22.999Z,991.84
2018-07-14T04:35:22.594Z,991.82
2018-07-14T04:36:44.497Z,991.84
2018-07-14T04:37:23.497Z,991.86
2018-07-14T04:38:23.496Z,991.86
2018-07-14T04:39:23.116Z,991.82
2018-07-14T04:40:24.006Z,991.87
2018-07-14T04:41:23.997Z,991.86
2018-07-14T04:42:24.037Z,991.85
2018-07-14T04:43:24.500Z,991.87
2018-07-14T04:44:24.497Z,991.88
2018-07-14T04:45:24.498Z,991.89
2018-07-14T04:46:24.498Z,991.89
2018-07-14T04:47:24.100Z,991.85
2018-07-14T04:48:24.997Z,991.93
2018-07-14T04:49:25.057Z,991.90
2018-07-14T04:50:45.996Z,991.93
2018-07-14T04:51:46.963Z,991.94
2018-07-14T04:53:56.822Z,991.95
2018-07-14T04:54:56.832Z,991.99
2018-07-14T04:59:21.016Z,991.94
2018-07-14T05:01:31.522Z,991.93
2018-07-14T05:02:30.871Z,991.90
2018-07-14T05:03:31.519Z,991.95
2018-07-14T05:04:32.019Z,991.94
2018-07-14T05:05:53.020Z,991.88
2018-07-14T05:06:32.124Z,991.87
2018-07-14T05:07:53.526Z,991.87
2018-07-14T05:08:32.520Z,991.91
2018-07-14T05:09:32.519Z,991.89
2018-07-14T05:10:32.520Z,991.88
2018-07-14T05:11:32.525Z,991.92
2018-07-14T05:12:33.020Z,991.93
2018-07-14T05:13:54.020Z,991.93
2018-07-14T05:14:33.041Z,991.91
2018-07-14T05:15:36.451Z,991.96
2018-07-14T05:16:33.517Z,991.95
2018-07-14T05:19:04.909Z,991.94
2018-07-14T05:20:04.917Z,991.95
2018-07-14T05:21:04.916Z,991.97
2018-07-14T05:22:05.416Z,991.96
2018-07-14T05:23:26.416Z,992.01
2018-07-14T05:24:05.413Z,992.00
2018-07-14T05:25:05.420Z,991.97
2018-07-14T05:29:08.596Z,992.00
2018-07-14T05:30:08.608Z,992.00
2018-07-14T05:31:10.044Z,992.02
2018-07-14T05:34:01.304Z,992.02
2018-07-14T05:34:40.314Z,992.05
2018-07-14T05:35:40.314Z,992.02
2018-07-14T05:36:46.812Z,991.98
2018-07-14T05:38:01.013Z,992.02
2018-07-14T05:38:46.814Z,991.97
2018-07-14T05:40:01.812Z,992.00
2018-07-14T05:41:01.817Z,992.01
2018-07-14T05:43:12.574Z,992.00
2018-07-14T05:44:12.571Z,991.92
2018-07-14T05:45:14.546Z,991.97
2018-07-14T05:46:34.070Z,991.94
2018-07-14T05:47:13.099Z,991.93
2018-07-14T05:48:13.070Z,991.99
2018-07-14T05:49:34.071Z,991.96
2018-07-14T05:50:15.040Z,991.93
2018-07-14T05:52:45.856Z,991.94
2018-07-14T05:53:44.924Z,992.03
2018-07-14T05:54:44.924Z,992.02
2018-07-14T05:56:06.425Z,992.00
2018-07-14T05:58:41.277Z,992.01
2018-07-14T05:59:16.812Z,992.01
2018-07-14T06:00:16.816Z,992.03
2018-07-14T06:01:16.462Z,992.02
2018-07-14T06:04:09.707Z,992.01
2018-07-14T06:04:48.713Z,992.03
2018-07-14T06:05:50.151Z,992.00
2018-07-14T06:07:03.213Z,992.02
2018-07-14T06:08:10.215Z,992.05
2018-07-14T06:08:51.648Z,992.02
2018-07-14T06:10:10.214Z,992.04
2018-07-14T06:11:12.174Z,992.05
2018-07-14T06:11:49.718Z,992.03
2018-07-14T06:12:51.737Z,992.07
2018-07-14T06:13:49.715Z,992.11
2018-07-14T06:15:10.294Z,992.11
2018-07-14T06:17:21.644Z,992.06
2018-07-14T06:18:42.551Z,992.08
2018-07-14T06:19:23.526Z,992.03
2018-07-14T06:21:53.278Z,992.07
2018-07-14T06:22:53.298Z,992.11
2018-07-14T06:26:56.381Z,992.13
2018-07-14T06:27:57.821Z,992.11
2018-07-14T06:28:56.388Z,992.12
2018-07-14T06:29:56.888Z,992.12
2018-07-14T06:30:56.889Z,992.13
2018-07-14T06:31:56.912Z,992.14
2018-07-14T06:32:56.895Z,992.15
2018-07-14T06:33:57.393Z,992.17
2018-07-14T06:35:18.392Z,992.20
2018-07-14T06:35:57.394Z,992.18
2018-07-14T06:36:57.399Z,992.19
2018-07-14T06:38:19.963Z,992.20
2018-07-14T06:38:57.889Z,992.16
2018-07-14T06:39:57.890Z,992.16
2018-07-14T06:40:57.889Z,992.15
2018-07-14T06:42:20.321Z,992.16
2018-07-14T06:42:58.389Z,992.13
2018-07-14T06:44:20.821Z,992.12
2018-07-14T06:44:58.389Z,992.19
2018-07-14T06:46:19.890Z,992.11
2018-07-14T06:46:58.889Z,992.15
2018-07-14T06:47:58.889Z,992.16
2018-07-14T06:49:19.891Z,992.13
2018-07-14T06:50:01.393Z,992.15
2018-07-14T06:50:59.384Z,992.19
2018-07-14T06:53:51.916Z,992.16
2018-07-14T06:54:30.267Z,992.20
2018-07-14T06:55:30.925Z,992.19
2018-07-14T06:56:52.424Z,992.17
2018-07-14T06:57:31.424Z,992.18
2018-07-14T06:58:31.423Z,992.20
2018-07-14T06:59:31.424Z,992.16
2018-07-14T07:00:52.007Z,992.16
2018-07-14T07:01:31.924Z,992.19
2018-07-14T07:02:52.924Z,992.18
2018-07-14T07:03:31.929Z,992.20
2018-07-14T07:04:32.425Z,992.19
2018-07-14T07:05:53.423Z,992.20
2018-07-14T07:06:32.424Z,992.16
2018-07-14T07:07:33.856Z,992.23
2018-07-14T07:08:32.923Z,992.20
2018-07-14T07:09:32.924Z,992.22
2018-07-14T07:10:53.941Z,992.22
2018-07-14T07:11:32.924Z,992.21
2018-07-14T07:12:33.424Z,992.21
2018-07-14T07:13:32.679Z,992.22
2018-07-14T07:14:33.460Z,992.19
2018-07-14T07:15:54.425Z,992.14
2018-07-14T07:16:33.948Z,992.15
2018-07-14T07:17:54.930Z,992.15
2018-07-14T07:18:33.291Z,992.15
2018-07-14T07:19:54.393Z,992.16
2018-07-14T07:20:34.424Z,992.15
2018-07-14T07:21:56.857Z,992.10
2018-07-14T07:22:34.424Z,992.10
2018-07-14T07:23:33.777Z,992.10
2018-07-14T07:24:34.434Z,992.11
2018-07-14T07:25:34.964Z,992.11
2018-07-14T07:26:55.925Z,992.11
2018-07-14T07:27:34.931Z,992.13
2018-07-14T07:28:34.925Z,992.10
2018-07-14T07:29:56.425Z,992.13
2018-07-14T07:30:35.501Z,992.18
2018-07-14T07:31:35.428Z,992.15
2018-07-14T07:32:37.381Z,992.16
2018-07-14T07:33:35.428Z,992.18
2018-07-14T07:34:56.950Z,992.21
2018-07-14T07:35:58.865Z,992.16
2018-07-14T07:36:56.946Z,992.17
2018-07-14T07:37:56.928Z,992.12
2018-07-14T07:38:56.925Z,992.19
2018-07-14T07:39:37.872Z,992.15
2018-07-14T07:40:57.425Z,992.11
2018-07-14T07:41:36.425Z,992.14
2018-07-14T07:42:36.426Z,992.15
2018-07-14T07:43:36.425Z,992.20
2018-07-14T07:44:57.925Z,992.20
2018-07-14T07:45:38.926Z,992.18
2018-07-14T07:46:57.925Z,992.19
2018-07-14T07:47:57.925Z,992.19
2018-07-14T07:48:37.433Z,992.12
2018-07-14T07:51:23.320Z,992.14
2018-07-14T07:52:09.327Z,992.15
2018-07-14T07:53:09.327Z,992.20
2018-07-14T07:54:30.828Z,992.17
2018-07-14T07:55:30.830Z,992.17
2018-07-14T07:56:09.830Z,992.18
2018-07-14T07:57:09.828Z,992.18
2018-07-14T07:58:10.327Z,992.21
2018-07-14T08:01:04.715Z,992.17
2018-07-14T08:01:43.723Z,992.19
2018-07-14T08:02:43.723Z,992.18
2018-07-14T08:03:43.722Z,992.13
2018-07-14T08:04:44.222Z,992.14
2018-07-14T08:07:36.601Z,992.16
2018-07-14T08:08:15.604Z,992.16
2018-07-14T08:09:17.039Z,992.12
2018-07-14T08:10:16.107Z,992.10
2018-07-14T08:11:17.584Z,992.09
2018-07-14T08:12:16.112Z,992.09
2018-07-14T08:13:16.108Z,992.09
2018-07-14T08:14:37.608Z,992.10
2018-07-14T08:15:16.608Z,992.10
2018-07-14T08:16:16.608Z,992.09
2018-07-14T08:17:16.608Z,992.12
2018-07-14T08:19:48.361Z,992.08
2018-07-14T08:21:15.370Z,992.08
2018-07-14T08:21:48.369Z,992.12
2018-07-14T08:25:51.581Z,992.09
2018-07-14T08:26:50.930Z,992.07
2018-07-14T08:27:51.583Z,992.05
2018-07-14T08:28:52.085Z,992.07
2018-07-14T08:29:52.080Z,992.08
2018-07-14T08:30:52.084Z,992.03
2018-07-14T08:31:52.084Z,992.06
2018-07-14T08:34:23.839Z,992.00
2018-07-14T08:35:23.196Z,992.01
2018-07-14T08:36:23.852Z,992.01
2018-07-14T08:37:24.345Z,992.02
2018-07-14T08:38:24.347Z,992.02
2018-07-14T08:40:24.346Z,992.02
2018-07-14T08:41:25.792Z,992.00
2018-07-14T08:42:24.852Z,992.01
2018-07-14T08:43:24.847Z,992.02
2018-07-14T08:44:24.848Z,991.99
2018-07-14T08:45:31.347Z,991.99
2018-07-14T08:46:25.356Z,991.93
2018-07-14T08:47:25.347Z,991.96
2018-07-14T08:48:25.349Z,991.93
2018-07-14T08:49:25.848Z,991.95
2018-07-14T08:50:25.909Z,991.94
2018-07-14T08:51:25.872Z,991.90
2018-07-14T08:52:25.846Z,991.91
2018-07-14T08:53:28.348Z,991.93
2018-07-14T08:55:59.192Z,991.89
2018-07-14T08:56:57.760Z,991.87
2018-07-14T08:57:57.760Z,991.91
2018-07-14T08:58:58.259Z,991.89
2018-07-14T08:59:58.257Z,991.89
2018-07-14T09:02:29.765Z,991.91
2018-07-14T09:03:29.128Z,991.91
2018-07-14T09:06:22.416Z,991.92
2018-07-14T09:07:03.389Z,991.94
2018-07-14T09:08:01.394Z,991.87
2018-07-14T09:10:33.171Z,991.91
2018-07-14T09:13:28.369Z,991.93
2018-07-14T09:14:26.384Z,991.87
2018-07-14T09:15:05.377Z,991.85
2018-07-14T09:16:05.374Z,991.90
2018-07-14T09:18:39.170Z,991.84
2018-07-14T09:19:38.637Z,991.82
2018-07-14T09:20:58.176Z,991.82
2018-07-14T09:21:58.684Z,991.83
2018-07-14T09:22:58.677Z,991.78
2018-07-14T09:23:37.677Z,991.76
2018-07-14T09:24:58.677Z,991.74
2018-07-14T09:25:58.270Z,991.74
2018-07-14T09:26:59.172Z,991.78
2018-07-14T09:27:38.181Z,991.75
2018-07-14T09:28:38.186Z,991.74
2018-07-14T09:29:38.678Z,991.73
2018-07-14T09:30:37.908Z,991.75
2018-07-14T09:31:38.697Z,991.75
2018-07-14T09:32:38.734Z,991.70
2018-07-14T09:33:39.177Z,991.69
2018-07-14T09:34:38.439Z,991.66
2018-07-14T09:36:01.640Z,991.66
2018-07-14T09:36:39.179Z,991.68
2018-07-14T09:37:39.686Z,991.72
2018-07-14T09:38:39.678Z,991.70
2018-07-14T09:39:39.678Z,991.72
2018-07-14T09:40:39.679Z,991.71
2018-07-14T09:41:40.191Z,991.72
2018-07-14T09:44:11.585Z,991.66
2018-07-14T09:45:11.591Z,991.65
2018-07-14T09:46:11.078Z,991.66
2018-07-14T09:48:43.327Z,991.64
2018-07-14T09:49:43.337Z,991.64
2018-07-14T09:52:15.011Z,991.60
2018-07-14T09:53:14.369Z,991.56
2018-07-14T09:54:15.023Z,991.54
2018-07-14T09:55:15.578Z,991.56
2018-07-14T09:57:46.924Z,991.45
2018-07-14T09:58:46.932Z,991.46
2018-07-14T10:01:41.576Z,991.46
2018-07-14T10:02:17.932Z,991.44
2018-07-14T10:03:32.667Z,991.42
2018-07-14T10:06:04.429Z,991.37
2018-07-14T10:06:51.792Z,991.43
2018-07-14T10:07:56.364Z,991.43
2018-07-14T10:10:43.134Z,991.39
2018-07-14T10:11:44.139Z,991.41
2018-07-14T10:12:43.144Z,991.37
2018-07-14T10:13:22.640Z,991.37
2018-07-14T10:14:22.643Z,991.36
2018-07-14T10:15:22.664Z,991.29
2018-07-14T10:16:43.655Z,991.32
2018-07-14T10:17:22.348Z,991.28
2018-07-14T10:18:44.141Z,991.26
2018-07-14T10:19:45.075Z,991.31
2018-07-14T10:20:23.141Z,991.33
2018-07-14T10:21:23.143Z,991.28
2018-07-14T10:22:25.647Z,991.26
2018-07-14T10:23:26.574Z,991.26
2018-07-14T10:24:23.639Z,991.22
2018-07-14T10:25:23.774Z,991.24
2018-07-14T10:26:25.111Z,991.26
2018-07-14T10:27:23.350Z,991.29
2018-07-14T10:28:24.178Z,991.25
2018-07-14T10:29:24.153Z,991.29
2018-07-14T10:30:24.645Z,991.26
2018-07-14T10:31:24.642Z,991.23
2018-07-14T10:32:24.649Z,991.24
2018-07-14T10:33:24.643Z,991.21
2018-07-14T10:34:39.146Z,991.25
2018-07-14T10:35:25.147Z,991.22
2018-07-14T10:36:25.156Z,991.19
2018-07-14T10:37:25.143Z,991.23
2018-07-14T10:38:27.123Z,991.22
2018-07-14T10:39:46.645Z,991.20
2018-07-14T10:40:25.643Z,991.20
2018-07-14T10:41:25.644Z,991.16
2018-07-14T10:42:46.233Z,991.21
2018-07-14T10:43:26.144Z,991.20
2018-07-14T10:44:26.148Z,991.21
2018-07-14T10:45:32.645Z,991.20
2018-07-14T10:47:57.917Z,991.17
2018-07-14T10:48:57.921Z,991.19
2018-07-14T10:49:57.919Z,991.10
2018-07-14T10:51:12.426Z,991.10
2018-07-14T10:52:04.420Z,991.07
2018-07-14T10:52:58.428Z,991.04
2018-07-14T10:55:30.073Z,991.10
2018-07-14T10:58:00.955Z,990.98
2018-07-14T10:59:01.636Z,990.94
2018-07-14T11:02:01.719Z,991.00
2018-07-14T11:02:34.739Z,990.98
2018-07-14T11:03:32.725Z,990.93
2018-07-14T11:04:33.840Z,990.92
2018-07-14T11:05:54.782Z,990.95
2018-07-14T11:06:33.780Z,990.87
2018-07-14T11:07:33.780Z,990.92
2018-07-14T11:08:33.782Z,990.86
2018-07-14T11:09:34.283Z,990.91
2018-07-14T11:10:34.281Z,990.87
2018-07-14T11:11:34.283Z,990.87
2018-07-14T11:12:34.285Z,990.87
2018-07-14T11:15:06.060Z,990.84
2018-07-14T11:16:06.068Z,990.79
2018-07-14T11:17:06.084Z,990.79
2018-07-14T11:18:06.575Z,990.80
2018-07-14T11:19:06.569Z,990.75
2018-07-14T11:20:06.570Z,990.74
2018-07-14T11:21:06.566Z,990.75
2018-07-14T11:22:28.068Z,990.73
2018-07-14T11:23:28.068Z,990.75
2018-07-14T11:24:07.105Z,990.70
2018-07-14T11:28:34.131Z,990.70
2018-07-14T11:29:10.198Z,990.71
2018-07-14T11:30:11.705Z,990.62
2018-07-14T11:33:03.919Z,990.62
2018-07-14T11:33:41.952Z,990.64
2018-07-14T11:35:02.956Z,990.61
2018-07-14T11:36:04.450Z,990.61
2018-07-14T11:37:03.452Z,990.56
2018-07-14T11:39:13.789Z,990.57
2018-07-14T11:40:14.492Z,990.54
2018-07-14T11:41:14.491Z,990.54
2018-07-14T11:42:35.992Z,990.53
2018-07-14T11:43:14.992Z,990.55
2018-07-14T11:44:15.048Z,990.53
2018-07-14T11:45:14.435Z,990.55
2018-07-14T11:46:14.540Z,990.55
2018-07-14T11:48:46.821Z,990.48
2018-07-14T11:49:46.825Z,990.46
2018-07-14T11:51:07.823Z,990.41
2018-07-14T11:51:47.287Z,990.41
2018-07-14T11:52:47.322Z,990.48
2018-07-14T11:53:47.322Z,990.46
2018-07-14T11:54:47.322Z,990.45
2018-07-14T11:55:47.830Z,990.40
2018-07-14T11:56:47.822Z,990.44
2018-07-14T11:57:47.824Z,990.45
2018-07-14T11:58:47.823Z,990.43
2018-07-14T11:59:48.323Z,990.41
2018-07-14T12:00:49.754Z,990.40
2018-07-14T12:01:50.325Z,990.39
2018-07-14T12:04:19.957Z,990.31
2018-07-14T12:05:21.968Z,990.30
2018-07-14T12:06:20.964Z,990.34
2018-07-14T12:07:41.471Z,990.24
2018-07-14T12:09:52.791Z,990.20
2018-07-14T12:10:51.859Z,990.24
2018-07-14T12:11:51.337Z,990.29
2018-07-14T12:13:15.366Z,990.29
2018-07-14T12:15:23.032Z,990.24
2018-07-14T12:16:44.777Z,990.24
2018-07-14T12:17:23.773Z,990.19
2018-07-14T12:18:45.289Z,990.22
2018-07-14T12:19:23.500Z,990.19
2018-07-14T12:20:26.274Z,990.18
2018-07-14T12:21:24.270Z,990.22
2018-07-14T12:22:24.845Z,990.23
2018-07-14T12:24:56.197Z,990.21
2018-07-14T12:26:16.536Z,990.16
2018-07-14T12:26:56.202Z,990.17
2018-07-14T12:27:57.637Z,990.15
2018-07-14T12:28:56.704Z,990.12
2018-07-14T12:29:56.705Z,990.10
2018-07-14T12:30:56.705Z,990.08
2018-07-14T12:31:56.312Z,990.08
2018-07-14T12:32:57.207Z,990.06
2018-07-14T12:33:57.204Z,990.00
2018-07-14T12:35:18.223Z,990.01
2018-07-14T12:35:57.713Z,990.04
2018-07-14T12:36:57.705Z,990.04
2018-07-14T12:37:57.705Z,990.03
2018-07-14T12:38:57.705Z,990.04
2018-07-14T12:43:22.535Z,989.98
2018-07-14T12:44:01.534Z,989.96
2018-07-14T12:45:03.535Z,989.95
2018-07-14T12:46:03.013Z,989.92
2018-07-14T12:47:02.033Z,989.93
2018-07-14T12:48:02.036Z,989.93
2018-07-14T12:49:08.035Z,989.90
2018-07-14T12:50:23.535Z,989.90
2018-07-14T12:51:23.535Z,989.90
2018-07-14T12:52:04.535Z,989.88
2018-07-14T12:53:02.535Z,989.90
2018-07-14T12:55:36.779Z,989.86
2018-07-14T12:58:05.813Z,989.86
2018-07-14T12:59:05.819Z,989.84
2018-07-14T13:00:07.920Z,989.87
2018-07-14T13:01:07.765Z,989.85
2018-07-14T13:03:37.682Z,989.88
2018-07-14T13:04:37.702Z,989.88
2018-07-14T13:05:37.704Z,989.95
2018-07-14T13:06:39.726Z,989.95
2018-07-14T13:07:38.196Z,989.93
2018-07-14T13:08:38.192Z,989.91
2018-07-14T13:09:59.189Z,989.88
2018-07-14T13:10:37.797Z,989.69
2018-07-14T13:11:38.691Z,989.72
2018-07-14T13:12:38.698Z,989.70
2018-07-14T13:13:38.723Z,989.73
2018-07-14T13:19:34.356Z,989.73
2018-07-14T13:20:14.797Z,989.76
2018-07-14T13:21:34.363Z,989.76
2018-07-14T13:22:13.366Z,989.68
2018-07-14T13:23:13.929Z,989.75
2018-07-14T13:24:35.862Z,989.71
2018-07-14T13:25:13.873Z,989.74
2018-07-14T13:26:13.863Z,989.81
2018-07-14T13:27:14.815Z,989.84
2018-07-14T13:28:14.395Z,989.86
2018-07-14T13:29:14.364Z,989.91
2018-07-14T13:30:13.604Z,989.95
2018-07-14T13:31:14.365Z,989.92
2018-07-14T13:32:36.296Z,989.86
2018-07-14T13:33:14.867Z,989.88
2018-07-14T13:34:35.874Z,989.86
2018-07-14T13:35:14.865Z,989.80
2018-07-14T13:36:14.922Z,989.84
2018-07-14T13:37:14.469Z,989.83
2018-07-14T13:38:36.365Z,989.82
2018-07-14T13:39:15.372Z,989.74
2018-07-14T13:40:36.368Z,989.47
2018-07-14T13:41:15.868Z,989.48
2018-07-14T13:42:15.865Z,989.74
2018-07-14T13:43:15.866Z,989.77
2018-07-14T13:44:15.865Z,989.77
2018-07-14T13:45:15.506Z,989.76
2018-07-14T13:46:16.365Z,989.76
2018-07-14T13:48:47.891Z,989.59
2018-07-14T13:49:47.902Z,989.52
2018-07-14T13:51:08.901Z,989.53
2018-07-14T13:52:09.397Z,989.41
2018-07-14T13:54:19.787Z,989.38
2018-07-14T13:55:21.256Z,989.35
2018-07-14T13:56:19.795Z,989.30
2018-07-14T13:58:51.562Z,989.37
2018-07-14T14:00:12.572Z,989.35
2018-07-14T14:00:51.569Z,989.36
2018-07-14T14:01:54.070Z,989.35
2018-07-14T14:03:13.072Z,989.28
2018-07-14T14:03:52.071Z,989.31
2018-07-14T14:04:52.072Z,989.31
2018-07-14T14:05:52.573Z,989.29
2018-07-14T14:06:53.543Z,989.26
2018-07-14T14:08:13.570Z,989.23
2018-07-14T14:08:53.567Z,989.24
2018-07-14T14:09:53.070Z,989.21
2018-07-14T14:10:53.073Z,989.18
2018-07-14T14:11:53.076Z,989.27
2018-07-14T14:15:56.525Z,989.15
2018-07-14T14:16:56.526Z,989.14
2018-07-14T14:17:56.537Z,989.14
2018-07-14T14:20:57.761Z,989.12
2018-07-14T14:21:49.329Z,989.09
2018-07-14T14:22:49.331Z,989.09
2018-07-14T14:23:28.830Z,989.07
2018-07-14T14:26:27.259Z,989.04
2018-07-14T14:27:00.254Z,989.07
2018-07-14T14:28:21.253Z,989.09
2018-07-14T14:29:14.755Z,989.10
2018-07-14T14:30:21.755Z,989.06
2018-07-14T14:34:25.015Z,989.05
2018-07-14T14:35:04.029Z,989.05
2018-07-14T14:36:04.022Z,989.08
2018-07-14T14:37:03.635Z,989.40
2018-07-14T14:38:25.521Z,989.38
2018-07-14T14:40:38.028Z,989.35
2018-07-14T14:41:36.042Z,989.30
2018-07-14T14:42:36.048Z,989.31
2018-07-14T14:43:36.553Z,989.34
2018-07-14T14:44:57.556Z,989.31
2018-07-14T14:45:38.541Z,989.31
2018-07-14T14:46:58.540Z,989.26
2018-07-14T14:47:58.047Z,989.28
2018-07-14T14:48:37.101Z,989.37
2018-07-14T14:49:57.429Z,989.31
2018-07-14T14:50:37.042Z,989.30
2018-07-14T14:51:58.542Z,989.24
2018-07-14T14:52:37.538Z,989.19
2018-07-14T14:53:39.551Z,989.04
2018-07-14T14:54:37.547Z,989.06
2018-07-14T14:55:38.046Z,989.12
2018-07-14T14:56:38.043Z,989.27
2018-07-14T14:57:38.048Z,989.03
2018-07-14T14:58:38.057Z,988.96
2018-07-14T15:04:12.764Z,988.88
2018-07-14T15:05:12.771Z,988.88
2018-07-14T15:06:12.772Z,988.87